createdAt,value
2019-05-10T00:00:41.239Z,12.10
2019-05-10T00:03:28.170Z,12.10
2019-05-10T00:06:21.498Z,12.10
2019-05-10T00:08:52.847Z,12.00
2019-05-10T00:11:48.816Z,12.10
2019-05-10T00:14:46.080Z,12.00
2019-05-10T00:17:22.500Z,12.00
2019-05-10T00:19:57.680Z,12.10
2019-05-10T00:22:27.155Z,12.10
2019-05-10T00:25:04.474Z,12.10
2019-05-10T00:27:44.556Z,12.10
2019-05-10T00:30:20.458Z,12.10
2019-05-10T00:32:49.560Z,12.00
2019-05-10T00:35:26.002Z,12.00
2019-05-10T00:38:05.602Z,12.10
2019-05-10T00:40:35.195Z,12.10
2019-05-10T00:43:06.369Z,12.10
2019-05-10T00:45:39.895Z,12.10
2019-05-10T00:48:27.437Z,12.10
2019-05-10T00:50:56.536Z,12.10
2019-05-10T00:53:34.848Z,12.10
2019-05-10T00:56:04.982Z,12.10
2019-05-10T00:58:40.193Z,12.10
2019-05-10T01:01:09.692Z,12.10
2019-05-10T01:03:52.937Z,12.20
2019-05-10T01:06:25.523Z,12.20
2019-05-10T01:08:56.947Z,12.20
2019-05-10T01:11:26.697Z,12.10
2019-05-10T01:14:01.126Z,12.10
2019-05-10T01:16:38.386Z,12.00
2019-05-10T01:19:17.491Z,12.00
2019-05-10T01:22:07.403Z,12.00
2019-05-10T01:24:53.056Z,12.00
2019-05-10T01:27:29.237Z,12.00
2019-05-10T01:30:35.794Z,11.90
2019-05-10T01:33:04.901Z,11.90
2019-05-10T01:35:38.109Z,11.80
2019-05-10T01:38:07.204Z,11.80
2019-05-10T01:40:36.614Z,11.80
2019-05-10T01:43:07.020Z,11.80
2019-05-10T01:45:36.149Z,11.80
2019-05-10T01:48:05.214Z,11.80
2019-05-10T01:50:36.442Z,11.80
2019-05-10T01:53:25.782Z,11.80
2019-05-10T01:55:54.967Z,11.80
2019-05-10T01:58:26.087Z,11.80
2019-05-10T02:04:24.386Z,11.90
2019-05-10T02:06:58.706Z,11.80
2019-05-10T02:09:45.162Z,11.80
2019-05-10T02:12:22.856Z,11.80
2019-05-10T02:14:51.923Z,11.70
2019-05-10T02:17:20.991Z,11.70
2019-05-10T02:19:51.129Z,11.70
2019-05-10T02:22:20.208Z,11.70
2019-05-10T02:24:49.243Z,11.70
2019-05-10T02:27:18.405Z,11.60
2019-05-10T02:29:47.497Z,11.60
2019-05-10T02:32:32.430Z,11.50
2019-05-10T02:35:01.868Z,11.50
2019-05-10T02:37:30.970Z,11.50
2019-05-10T02:40:02.109Z,11.50
2019-05-10T02:43:22.240Z,11.60
2019-05-10T02:45:54.684Z,11.60
2019-05-10T02:48:32.899Z,11.50
2019-05-10T02:51:05.232Z,11.60
2019-05-10T02:53:34.544Z,11.50
2019-05-10T02:56:30.603Z,11.50
2019-05-10T02:59:04.029Z,11.50
2019-05-10T03:01:39.439Z,11.50
2019-05-10T03:04:15.645Z,11.50
2019-05-10T03:06:45.032Z,11.50
2019-05-10T03:09:14.270Z,11.40
2019-05-10T03:11:49.126Z,11.50
2019-05-10T03:20:58.338Z,11.50
2019-05-10T03:27:08.630Z,11.50
2019-05-10T03:33:19.002Z,11.40
2019-05-10T03:39:29.304Z,11.40
2019-05-10T03:45:40.207Z,11.40
2019-05-10T03:51:50.736Z,11.40
2019-05-10T03:55:13.539Z,11.40
2019-05-10T04:01:24.060Z,11.40
2019-05-10T04:04:47.175Z,11.40
2019-05-10T04:10:57.890Z,11.40
2019-05-10T04:14:25.323Z,11.40
2019-05-10T04:16:55.081Z,11.40
2019-05-10T04:19:27.278Z,11.40
2019-05-10T04:21:56.432Z,11.50
2019-05-10T04:24:36.033Z,11.50
2019-05-10T04:27:02.413Z,11.50
2019-05-10T04:29:33.389Z,11.50
2019-05-10T04:32:02.573Z,11.60
2019-05-10T04:34:35.958Z,11.60
2019-05-10T04:37:07.661Z,11.60
2019-05-10T04:39:41.151Z,11.60
2019-05-10T04:42:10.318Z,11.70
2019-05-10T04:44:40.565Z,11.80
2019-05-10T04:47:09.834Z,11.80
2019-05-10T04:49:39.406Z,11.80
2019-05-10T04:52:18.959Z,11.80
2019-05-10T04:54:52.559Z,11.80
2019-05-10T04:57:49.192Z,11.80
2019-05-10T05:00:07.693Z,11.90
2019-05-10T05:02:50.179Z,11.90
2019-05-10T05:05:22.957Z,11.80
2019-05-10T05:07:53.428Z,11.90
2019-05-10T05:10:28.949Z,11.90
2019-05-10T05:13:10.731Z,11.90
2019-05-10T05:15:40.924Z,11.90
2019-05-10T05:18:10.080Z,11.90
2019-05-10T05:20:39.288Z,11.90
2019-05-10T05:23:08.463Z,12.00
2019-05-10T05:25:40.297Z,12.10
2019-05-10T05:28:12.665Z,12.10
2019-05-10T05:30:53.779Z,12.20
2019-05-10T05:33:25.752Z,12.30
2019-05-10T05:35:56.885Z,12.40
2019-05-10T05:38:26.066Z,12.40
2019-05-10T05:40:58.778Z,12.40
2019-05-10T05:43:45.753Z,12.50
2019-05-10T05:46:17.844Z,12.60
2019-05-10T05:48:51.562Z,12.70
2019-05-10T05:51:21.064Z,12.60
2019-05-10T05:53:50.263Z,12.70
2019-05-10T05:56:20.809Z,12.70
2019-05-10T05:58:56.312Z,12.70
2019-05-10T06:01:35.247Z,12.70
2019-05-10T06:04:09.113Z,12.70
2019-05-10T06:06:37.355Z,12.80
2019-05-10T06:09:10.885Z,12.90
2019-05-10T06:11:45.349Z,13.10
2019-05-10T06:14:25.808Z,13.20
2019-05-10T06:17:01.346Z,13.40
2019-05-10T06:23:11.650Z,13.60
2019-05-10T06:25:42.674Z,13.60
2019-05-10T06:28:26.234Z,13.70
2019-05-10T06:30:47.534Z,13.90
2019-05-10T06:33:22.581Z,13.90
2019-05-10T06:35:51.740Z,13.90
2019-05-10T06:38:26.748Z,13.90
2019-05-10T06:40:56.270Z,13.80
2019-05-10T06:43:25.482Z,13.70
2019-05-10T06:45:54.583Z,13.60
2019-05-10T06:48:27.473Z,13.60
2019-05-10T06:51:26.214Z,14.30
2019-05-10T06:53:57.977Z,15.30
2019-05-10T06:56:36.365Z,16.60
2019-05-10T06:59:13.473Z,17.60
2019-05-10T07:01:38.193Z,18.20
2019-05-10T07:04:07.732Z,18.80
2019-05-10T07:06:36.789Z,19.40
2019-05-10T07:09:07.094Z,19.00
2019-05-10T07:11:36.163Z,18.70
2019-05-10T07:14:05.547Z,19.10
2019-05-10T07:16:34.645Z,19.80
2019-05-10T07:19:04.087Z,20.50
2019-05-10T07:21:33.403Z,21.00
2019-05-10T07:24:06.978Z,21.00
2019-05-10T07:26:36.043Z,21.10
2019-05-10T07:29:05.113Z,21.10
2019-05-10T07:31:34.682Z,20.70
2019-05-10T07:34:04.403Z,20.50
2019-05-10T07:36:37.191Z,20.40
2019-05-10T07:39:08.253Z,20.30
2019-05-10T07:41:41.057Z,19.90
2019-05-10T07:44:16.334Z,19.60
2019-05-10T07:46:47.144Z,19.70
2019-05-10T07:49:23.970Z,19.30
2019-05-10T07:52:02.141Z,19.00
2019-05-10T07:54:28.376Z,19.20
2019-05-10T07:56:59.492Z,19.60
2019-05-10T07:59:33.874Z,20.10
2019-05-10T08:02:05.866Z,20.40
2019-05-10T08:04:33.495Z,20.50
2019-05-10T08:07:02.479Z,20.10
2019-05-10T08:09:37.109Z,19.40
2019-05-10T08:12:05.091Z,18.80
2019-05-10T08:14:34.158Z,18.30
2019-05-10T08:17:06.233Z,18.10
2019-05-10T08:19:37.528Z,18.10
2019-05-10T08:22:05.573Z,18.20
2019-05-10T08:24:35.435Z,18.30
2019-05-10T08:27:11.313Z,18.20
2019-05-10T08:29:35.751Z,18.20
2019-05-10T08:32:05.395Z,18.30
2019-05-10T08:34:39.421Z,18.50
2019-05-10T08:37:06.990Z,18.70
2019-05-10T08:39:45.272Z,18.70
2019-05-10T08:42:27.433Z,18.50
2019-05-10T08:44:42.570Z,18.30
2019-05-10T08:47:16.133Z,18.10
2019-05-10T08:49:55.025Z,17.90
2019-05-10T08:52:12.974Z,18.00
2019-05-10T08:54:44.756Z,18.00
2019-05-10T08:57:18.624Z,18.20
2019-05-10T08:59:54.199Z,18.50
2019-05-10T09:02:28.946Z,18.70
2019-05-10T09:04:52.958Z,18.80
2019-05-10T09:07:24.622Z,18.50
2019-05-10T09:09:57.723Z,18.30
2019-05-10T09:12:29.468Z,18.00
2019-05-10T09:15:07.708Z,18.00
2019-05-10T09:17:29.458Z,18.00
2019-05-10T10:18:58.127Z,18.90
2019-05-10T10:21:34.654Z,18.60
2019-05-10T10:24:00.452Z,18.50
2019-05-10T10:26:29.124Z,18.50
2019-05-10T10:29:00.141Z,18.70
2019-05-10T10:31:33.344Z,18.60
2019-05-10T10:34:03.206Z,18.90
2019-05-10T10:36:31.680Z,19.30
2019-05-10T10:39:00.940Z,19.70
2019-05-10T10:41:31.802Z,19.90
2019-05-10T10:44:02.230Z,20.00
2019-05-10T10:46:34.425Z,19.90
2019-05-10T10:49:02.137Z,20.10
2019-05-10T10:51:31.971Z,20.00
2019-05-10T10:54:02.739Z,19.90
2019-05-10T10:56:31.808Z,20.30
2019-05-10T10:59:00.911Z,21.10
2019-05-10T11:01:45.966Z,21.50
2019-05-10T11:04:07.924Z,21.30
2019-05-10T11:06:33.366Z,21.10
2019-05-10T11:09:05.319Z,21.20
2019-05-10T11:11:38.654Z,21.00
2019-05-10T11:14:07.611Z,21.30
2019-05-10T11:16:37.068Z,21.60
2019-05-10T11:19:11.257Z,21.70
2019-05-10T11:21:37.355Z,21.50
2019-05-10T11:24:10.467Z,21.20
2019-05-10T11:26:40.965Z,21.10
2019-05-10T11:29:14.249Z,20.90
2019-05-10T11:31:41.632Z,20.80
2019-05-10T11:34:10.967Z,20.30
2019-05-10T11:36:40.460Z,20.10
2019-05-10T11:39:25.305Z,20.10
2019-05-10T11:41:42.155Z,20.30
2019-05-10T11:44:12.017Z,20.40
2019-05-10T11:46:41.777Z,20.40
2019-05-10T11:49:10.828Z,20.30
2019-05-10T11:51:41.387Z,20.40
2019-05-10T11:54:11.229Z,20.30
2019-05-10T11:56:41.176Z,20.30
2019-05-10T11:59:15.860Z,20.20
2019-05-10T12:01:42.014Z,20.20
2019-05-10T12:04:22.821Z,20.20
2019-05-10T12:06:49.933Z,20.30
2019-05-10T12:09:13.842Z,20.40
2019-05-10T12:11:51.921Z,20.50
2019-05-10T12:14:14.490Z,20.60
2019-05-10T12:16:43.577Z,20.50
2019-05-10T12:19:19.673Z,20.40
2019-05-10T12:21:44.155Z,20.40
2019-05-10T12:24:32.408Z,20.30
2019-05-10T12:29:17.261Z,20.00
2019-05-10T12:31:47.616Z,20.10
2019-05-10T12:34:17.360Z,19.90
2019-05-10T12:36:46.795Z,20.00
2019-05-10T12:39:16.310Z,20.00
2019-05-10T12:41:52.894Z,20.20
2019-05-10T12:44:20.741Z,20.40
2019-05-10T12:46:53.812Z,20.30
2019-05-10T12:49:22.218Z,20.20
2019-05-10T12:51:51.910Z,19.90
2019-05-10T12:54:23.936Z,19.70
2019-05-10T12:56:51.951Z,19.70
2019-05-10T12:59:21.050Z,19.50
2019-05-10T13:01:50.246Z,19.30
2019-05-10T13:04:19.379Z,19.10
2019-05-10T13:06:48.943Z,18.90
2019-05-10T13:09:18.100Z,18.70
2019-05-10T13:11:47.661Z,18.70
2019-05-10T13:14:17.301Z,18.60
2019-05-10T13:16:46.623Z,18.60
2019-05-10T13:19:20.019Z,18.60
2019-05-10T13:21:47.560Z,18.50
2019-05-10T13:24:17.028Z,18.60
2019-05-10T13:26:46.850Z,18.70
2019-05-10T13:29:16.611Z,18.60
2019-05-10T13:31:46.430Z,18.60
2019-05-10T13:34:16.193Z,18.60
2019-05-10T13:36:45.281Z,18.80
2019-05-10T13:39:19.210Z,19.00
2019-05-10T13:41:46.750Z,19.10
2019-05-10T13:44:18.054Z,19.10
2019-05-10T13:46:47.308Z,19.10
2019-05-10T13:49:16.517Z,19.20
2019-05-10T13:51:46.093Z,19.20
2019-05-10T13:54:15.284Z,19.10
2019-05-10T13:56:52.248Z,19.00
2019-05-10T13:59:18.036Z,19.10
2019-05-10T14:01:49.776Z,18.90
2019-05-10T14:04:23.046Z,18.90
2019-05-10T14:06:50.544Z,18.80
2019-05-10T14:09:21.020Z,18.80
2019-05-10T14:11:50.352Z,18.90
2019-05-10T14:14:20.342Z,18.90
2019-05-10T14:16:50.604Z,18.90
2019-05-10T14:19:23.040Z,19.00
2019-05-10T14:21:51.100Z,19.00
2019-05-10T14:24:20.230Z,19.10
2019-05-10T14:26:51.356Z,19.10
2019-05-10T14:29:33.372Z,19.00
2019-05-10T14:31:52.308Z,19.00
2019-05-10T14:34:21.710Z,19.00
2019-05-10T14:36:51.225Z,18.80
2019-05-10T14:39:20.307Z,18.80
2019-05-10T14:41:50.762Z,18.80
2019-05-10T14:44:20.922Z,18.80
2019-05-10T14:46:50.025Z,18.80
2019-05-10T14:49:19.435Z,18.80
2019-05-10T14:51:58.288Z,18.70
2019-05-10T14:54:19.775Z,18.70
2019-05-10T14:56:49.875Z,18.70
2019-05-10T14:59:18.962Z,18.80
2019-05-10T15:01:48.331Z,18.90
2019-05-10T15:04:43.698Z,19.00
2019-05-10T15:06:48.586Z,19.10
2019-05-10T15:09:21.713Z,19.00
2019-05-10T15:11:48.818Z,18.90
2019-05-10T15:14:18.238Z,18.70
2019-05-10T15:16:47.292Z,18.60
2019-05-10T15:19:16.702Z,18.60
2019-05-10T15:21:45.808Z,18.60
2019-05-10T15:24:14.850Z,18.40
2019-05-10T15:26:45.996Z,18.50
2019-05-10T15:29:22.523Z,18.40
2019-05-10T15:31:46.335Z,18.40
2019-05-10T15:34:15.388Z,18.40
2019-05-10T15:36:44.848Z,18.30
2019-05-10T15:39:13.949Z,18.20
2019-05-10T15:41:43.346Z,18.10
2019-05-10T15:44:13.493Z,18.10
2019-05-10T15:46:42.884Z,18.10
2019-05-10T15:49:13.565Z,18.10
2019-05-10T15:51:43.192Z,18.10
2019-05-10T15:54:12.789Z,18.20
2019-05-10T15:56:44.009Z,18.20
2019-05-10T15:59:19.459Z,18.40
2019-05-10T16:01:45.663Z,18.50
2019-05-10T16:04:15.794Z,18.50
2019-05-10T16:06:44.908Z,18.50
2019-05-10T16:09:19.119Z,18.50
2019-05-10T16:11:45.872Z,18.40
2019-05-10T16:14:15.023Z,18.30
2019-05-10T16:16:44.148Z,18.30
2019-05-10T16:19:18.650Z,18.20
2019-05-10T16:21:46.570Z,18.10
2019-05-10T16:24:25.278Z,18.00
2019-05-10T16:26:47.596Z,17.80
2019-05-10T16:29:17.105Z,17.80
2019-05-10T16:31:46.482Z,17.90
2019-05-10T16:34:16.327Z,17.90
2019-05-10T16:36:45.413Z,17.90
2019-05-10T16:39:14.561Z,17.90
2019-05-10T16:41:44.015Z,17.90
2019-05-10T16:44:13.098Z,17.80
2019-05-10T16:46:42.648Z,17.80
2019-05-10T16:49:15.444Z,17.80
2019-05-10T16:51:47.667Z,17.70
2019-05-10T16:54:24.219Z,17.60
2019-05-10T16:56:45.873Z,17.50
2019-05-10T16:59:15.003Z,17.50
2019-05-10T17:01:44.719Z,17.50
2019-05-10T17:04:14.244Z,17.40
2019-05-10T17:06:44.084Z,17.30
2019-05-10T17:09:18.331Z,17.40
2019-05-10T17:11:46.799Z,17.30
2019-05-10T17:14:18.030Z,17.40
2019-05-10T17:16:50.223Z,17.40
2019-05-10T17:19:18.455Z,17.30
2019-05-10T17:21:47.635Z,17.30
2019-05-10T17:24:18.668Z,17.20
2019-05-10T17:26:51.231Z,17.10
2019-05-10T17:29:20.915Z,17.10
2019-05-10T17:31:51.719Z,17.10
2019-05-10T17:34:29.130Z,17.10
2019-05-10T17:36:57.842Z,17.10
2019-05-10T17:39:26.013Z,17.10
2019-05-10T17:41:57.704Z,17.00
2019-05-10T17:44:26.677Z,17.00
2019-05-10T17:46:57.437Z,17.00
2019-05-10T17:49:26.744Z,16.90
2019-05-10T17:51:56.202Z,16.80
2019-05-10T17:54:25.297Z,16.80
2019-05-10T17:56:55.696Z,16.70
2019-05-10T17:59:24.802Z,16.70
2019-05-10T18:01:54.508Z,16.60
2019-05-10T18:04:24.315Z,16.50
2019-05-10T18:06:54.154Z,16.50
2019-05-10T18:09:23.612Z,16.50
2019-05-10T18:11:53.034Z,16.40
2019-05-10T18:14:22.413Z,16.40
2019-05-10T18:16:51.967Z,16.50
2019-05-10T18:19:24.769Z,16.50
2019-05-10T18:21:54.926Z,16.50
2019-05-10T18:24:23.811Z,16.40
2019-05-10T18:26:53.243Z,16.40
2019-05-10T18:29:22.727Z,16.30
2019-05-10T18:31:55.977Z,16.30
2019-05-10T18:34:26.619Z,16.30
2019-05-10T18:36:54.789Z,16.20
2019-05-10T18:39:24.862Z,16.10
2019-05-10T18:41:54.680Z,16.00
2019-05-10T18:44:24.495Z,16.00
2019-05-10T18:46:53.627Z,15.90
2019-05-10T18:49:26.044Z,15.80
2019-05-10T18:52:03.487Z,15.70
2019-05-10T18:54:26.083Z,15.70
2019-05-10T18:56:55.721Z,15.60
2019-05-10T18:59:24.852Z,15.50
2019-05-10T19:01:54.039Z,15.50
2019-05-10T19:04:23.431Z,15.40
2019-05-10T19:07:09.435Z,15.40
2019-05-10T19:09:28.253Z,15.30
2019-05-10T19:11:57.933Z,15.30
2019-05-10T19:14:29.553Z,15.30
2019-05-10T19:17:03.929Z,15.20
2019-05-10T19:19:35.329Z,15.20
2019-05-10T19:22:03.032Z,15.20
2019-05-10T19:24:32.350Z,15.20
2019-05-10T19:27:06.621Z,15.10
2019-05-10T19:29:32.641Z,15.10
2019-05-10T19:32:01.682Z,15.00
2019-05-10T19:34:31.120Z,15.00
2019-05-10T19:37:00.193Z,15.00
2019-05-10T19:39:29.303Z,15.00
2019-05-10T19:42:03.987Z,14.90
2019-05-10T19:44:29.213Z,14.90
2019-05-10T19:46:58.359Z,14.80
2019-05-10T19:49:27.439Z,14.70
2019-05-10T19:51:56.931Z,14.70
2019-05-10T19:54:26.041Z,14.60
2019-05-10T19:56:55.948Z,14.60
2019-05-10T19:59:25.183Z,14.60
2019-05-10T20:01:54.740Z,14.50
2019-05-10T20:04:24.040Z,14.50
2019-05-10T20:06:53.438Z,14.40
2019-05-10T20:09:22.915Z,14.40
2019-05-10T20:11:52.098Z,14.40
2019-05-10T20:14:21.679Z,14.40
2019-05-10T20:16:53.110Z,14.40
2019-05-10T20:19:22.091Z,14.30
2019-05-10T20:21:51.603Z,14.20
2019-05-10T20:24:20.796Z,14.10
2019-05-10T20:26:50.257Z,14.10
2019-05-10T20:29:21.847Z,14.10
2019-05-10T20:31:55.541Z,14.00
2019-05-10T20:34:29.439Z,14.00
2019-05-10T20:36:59.874Z,14.00
2019-05-10T20:39:29.010Z,14.00
2019-05-10T20:41:58.195Z,13.90
2019-05-10T20:44:28.373Z,13.80
2019-05-10T20:46:57.823Z,13.80
2019-05-10T20:49:27.426Z,13.70
2019-05-10T20:51:57.280Z,13.70
2019-05-10T20:54:26.747Z,13.60
2019-05-10T20:56:56.523Z,13.60
2019-05-10T20:59:25.681Z,13.60
2019-05-10T21:01:54.755Z,13.40
2019-05-10T21:04:24.450Z,13.40
2019-05-10T21:06:53.530Z,13.30
2019-05-10T21:09:23.134Z,13.20
2019-05-10T21:11:52.582Z,13.20
2019-05-10T21:14:21.967Z,13.20
2019-05-10T21:16:51.414Z,13.20
2019-05-10T21:19:20.954Z,13.10
2019-05-10T21:21:50.383Z,13.00
2019-05-10T21:24:19.579Z,13.00
2019-05-10T21:26:49.292Z,13.00
2019-05-10T21:29:18.396Z,13.00
2019-05-10T21:31:47.479Z,13.10
2019-05-10T21:34:16.590Z,13.10
2019-05-10T21:36:45.711Z,13.00
2019-05-10T21:39:14.892Z,13.00
2019-05-10T21:41:43.950Z,13.00
2019-05-10T21:44:13.092Z,13.10
2019-05-10T21:46:42.720Z,13.10
2019-05-10T21:49:11.922Z,13.20
2019-05-10T21:51:42.390Z,13.20
2019-05-10T21:54:11.533Z,13.20
2019-05-10T21:56:40.706Z,13.20
2019-05-10T21:59:09.821Z,13.30
2019-05-10T22:01:39.314Z,13.30
2019-05-10T22:04:08.806Z,13.30
2019-05-10T22:06:38.003Z,13.30
2019-05-10T22:09:08.278Z,13.30
2019-05-10T22:11:38.752Z,13.30
2019-05-10T22:14:07.874Z,13.30
2019-05-10T22:16:46.943Z,13.30
2019-05-10T22:19:16.104Z,13.30
2019-05-10T22:21:46.462Z,13.30
2019-05-10T22:24:15.594Z,13.20
2019-05-10T22:26:48.967Z,13.20
2019-05-10T22:29:24.127Z,13.10
2019-05-10T22:31:59.489Z,13.00
2019-05-10T22:34:31.588Z,13.10
2019-05-10T22:37:01.005Z,13.10
2019-05-10T22:39:31.475Z,13.20
2019-05-10T22:42:08.759Z,13.20
2019-05-10T22:44:50.991Z,13.20
2019-05-10T22:47:27.347Z,13.20
2019-05-10T22:50:04.629Z,13.20
2019-05-10T22:52:35.018Z,13.20
2019-05-10T22:55:10.219Z,13.10
2019-05-10T22:57:48.757Z,13.10
2019-05-10T23:00:21.804Z,13.00
2019-05-10T23:03:01.150Z,13.00
2019-05-10T23:05:33.655Z,13.00
2019-05-10T23:08:04.747Z,13.00
2019-05-10T23:10:35.198Z,12.90
2019-05-10T23:13:10.596Z,12.80
2019-05-10T23:15:51.779Z,12.80
2019-05-10T23:18:24.121Z,12.70
2019-05-10T23:20:56.420Z,12.60
2019-05-10T23:23:25.492Z,12.50
2019-05-10T23:25:55.786Z,12.60
2019-05-10T23:28:24.951Z,12.60
2019-05-10T23:30:55.104Z,12.60
2019-05-10T23:33:24.304Z,12.70
2019-05-10T23:35:53.511Z,12.60
2019-05-10T23:38:23.529Z,12.60
2019-05-10T23:40:52.978Z,12.50
2019-05-10T23:44:07.263Z,12.50
2019-05-10T23:46:38.409Z,12.50
2019-05-10T23:49:17.223Z,12.50
2019-05-10T23:51:52.470Z,12.50
2019-05-10T23:54:22.880Z,12.50
2019-05-10T23:57:10.626Z,12.50
2019-05-10T23:59:54.311Z,12.50
